11CN weather

Shasta Regional Medical Center Heliport
Redding, California, United States

Public forecast

Using degrees Fahrenheit for public forecast. Weather courtesy of forecast.io.

Closest aviation weather report (METAR) to Shasta Regional Medical Center Heliport

Closest report is Redding Municipal Airport, 6.3 nm (11.7 km) SE. Retrieved 2019/10/17 09:53 UTC (23 minutes ago):

KRDD 170953Z AUTO 05005KT 10SM -RA OVC070 14/12 A2983 RMK AO2 RAE22B38 SLP097 P0002 T01390122

Closest aviation forecast (TAF) to Shasta Regional Medical Center Heliport

Closest forecast is Redding Municipal Airport, 6.3 nm (11.7 km) SE. Retrieved 2019/10/17 06:22 UTC (4 hours ago):

TAF KRDD 170520Z 1706/1806 28007KT P6SM OVC080 TEMPO 1706/1707 P6SM -RA BKN050 FM170700 34004KT P6SM VCSH BKN050 TEMPO 1707/1710 P6SM -SHRA OVC050 FM171200 VRB03KT P6SM BKN100 FM171800 35005KT P6SM SCT100